Lipan, Texas
Current Conditions -  °F | °C
As of 4:15 AM on Saturday 22 Nov 2014 (Local Time) from KGDJ Reporting Station
Light Rain Light Rain  
Wind Chill: 66°   Ceiling: 1400
Heat Index: 66°   Visibility: 5mi
Dew Point: 63°   Wind: 8mph
Humidity: 89%   Direction: 130°SE
Pressure: 30.03"   Gusts: NA
Location:  32.52°N, 98.05°W
Report Text: KGDJ 221015Z AUTO 13007KT 5SM -RA SCT008 OVC014 19/17 A3003 RMK AO2 LTG DSNT W THRU NE T01900172
Loading
Personal Weather Stations






























Interactive Weather Map New forecast layout! Learn more

10-Day Weather Forecast

Advertisements
Track Severe Weather on mobile